createdAt,value
2022-12-01T00:01:10.131Z,43.33
2022-12-01T00:03:37.497Z,45.33
2022-12-01T00:06:05.855Z,47.55
2022-12-01T00:08:34.005Z,39.13
2022-12-01T00:11:09.620Z,50.03
2022-12-01T00:13:37.278Z,41.78
2022-12-01T00:16:15.552Z,38.90
2022-12-01T00:18:43.215Z,41.72
2022-12-01T00:21:18.384Z,48.33
2022-12-01T00:23:50.420Z,42.10
2022-12-01T00:26:18.996Z,45.30
2022-12-01T00:28:52.973Z,37.87
2022-12-01T00:31:20.577Z,39.75
2022-12-01T00:33:47.356Z,40.88
2022-12-01T00:36:14.545Z,41.70
2022-12-01T00:38:41.767Z,40.13
2022-12-01T00:41:09.014Z,39.43
2022-12-01T00:43:36.197Z,40.28
2022-12-01T00:46:03.660Z,36.42
2022-12-01T00:48:30.536Z,39.75
2022-12-01T00:50:57.437Z,37.67
2022-12-01T00:53:24.797Z,45.60
2022-12-01T00:55:53.900Z,39.47
2022-12-01T00:58:21.428Z,44.22
2022-12-01T01:00:48.764Z,43.38
2022-12-01T01:03:16.304Z,38.08
2022-12-01T01:05:43.918Z,40.23
2022-12-01T01:08:13.178Z,37.08
2022-12-01T01:10:41.371Z,44.88
2022-12-01T01:13:08.616Z,41.47
2022-12-01T01:15:35.762Z,43.15
2022-12-01T01:18:03.041Z,48.53
2022-12-01T01:20:30.438Z,43.47
2022-12-01T01:22:57.400Z,44.90
2022-12-01T01:25:24.930Z,45.38
2022-12-01T01:27:52.160Z,42.47
2022-12-01T01:30:20.152Z,45.80
2022-12-01T01:32:47.350Z,49.50
2022-12-01T01:35:14.603Z,40.78
2022-12-01T01:37:41.807Z,47.10
2022-12-01T01:40:09.161Z,44.92
2022-12-01T01:42:35.998Z,42.33
2022-12-01T01:45:03.155Z,45.72
2022-12-01T01:47:34.843Z,45.85
2022-12-01T01:50:11.127Z,47.55
2022-12-01T01:52:51.687Z,39.83
2022-12-01T01:55:19.164Z,44.63
2022-12-01T01:57:46.800Z,45.45
2022-12-01T02:00:16.943Z,43.75
2022-12-01T02:02:45.656Z,52.20
2022-12-01T02:05:19.126Z,49.05
2022-12-01T02:07:47.834Z,44.87
2022-12-01T02:10:22.267Z,41.63
2022-12-01T02:12:49.484Z,41.22
2022-12-01T02:15:37.073Z,50.58
2022-12-01T02:18:09.592Z,50.95
2022-12-01T02:20:51.868Z,46.50
2022-12-01T02:23:35.782Z,38.50
2022-12-01T02:26:33.576Z,42.72
2022-12-01T02:29:49.109Z,47.28
2022-12-01T02:32:33.316Z,41.67
2022-12-01T02:35:54.168Z,48.97
2022-12-01T02:38:40.828Z,46.33
2022-12-01T02:41:30.107Z,47.22
2022-12-01T02:44:06.006Z,50.53
2022-12-01T02:46:35.556Z,49.80
2022-12-01T02:49:06.379Z,49.00
2022-12-01T02:51:34.624Z,47.70
2022-12-01T02:54:03.738Z,48.72
2022-12-01T02:56:30.939Z,45.38
2022-12-01T02:58:58.092Z,42.13
2022-12-01T03:01:38.084Z,56.57
2022-12-01T03:04:08.908Z,54.10
2022-12-01T03:07:10.746Z,48.25
2022-12-01T03:10:20.762Z,45.45
2022-12-01T03:12:47.934Z,44.75
2022-12-01T03:15:15.089Z,50.17
2022-12-01T03:18:09.112Z,47.90
2022-12-01T03:20:43.615Z,47.45
2022-12-01T03:23:16.435Z,47.05
2022-12-01T03:25:47.887Z,53.85
2022-12-01T03:28:22.210Z,53.47
2022-12-01T03:30:55.824Z,48.33
2022-12-01T03:33:33.852Z,55.42
2022-12-01T03:36:32.592Z,49.28
2022-12-01T03:39:04.588Z,57.05
2022-12-01T03:41:57.216Z,48.30
2022-12-01T03:44:31.218Z,58.65
2022-12-01T03:47:10.673Z,56.97
2022-12-01T03:49:39.849Z,49.17
2022-12-01T03:52:37.975Z,62.17
2022-12-01T03:55:20.823Z,52.97
2022-12-01T03:58:04.290Z,50.20
2022-12-01T04:00:31.733Z,47.90
2022-12-01T04:03:00.020Z,55.40
2022-12-01T04:05:27.315Z,52.50
2022-12-01T04:07:54.648Z,57.57
2022-12-01T04:10:22.092Z,50.85
2022-12-01T04:12:49.453Z,51.83
2022-12-01T04:15:17.110Z,48.13
2022-12-01T04:17:45.005Z,54.30
2022-12-01T04:20:14.539Z,42.77
2022-12-01T04:22:41.372Z,43.70
2022-12-01T04:25:09.007Z,49.70
2022-12-01T04:27:36.363Z,46.33
2022-12-01T04:30:07.864Z,43.33
2022-12-01T04:32:39.735Z,48.97
2022-12-01T04:35:07.836Z,50.58
2022-12-01T04:37:35.311Z,48.72
2022-12-01T04:40:02.466Z,52.67
2022-12-01T04:42:29.688Z,49.67
2022-12-01T04:44:56.868Z,49.93
2022-12-01T04:47:23.630Z,45.00
2022-12-01T04:49:51.048Z,44.88
2022-12-01T04:52:18.435Z,53.33
2022-12-01T04:54:45.601Z,43.55
2022-12-01T04:57:12.778Z,50.03
2022-12-01T04:59:39.571Z,45.47
2022-12-01T05:02:06.783Z,49.33
2022-12-01T05:04:34.221Z,46.72
2022-12-01T05:07:01.448Z,52.35
2022-12-01T05:09:28.617Z,53.83
2022-12-01T05:11:55.803Z,47.92
2022-12-01T05:14:23.007Z,44.03
2022-12-01T05:16:50.243Z,46.58
2022-12-01T05:19:35.791Z,59.33
2022-12-01T05:22:02.989Z,47.70
2022-12-01T05:24:30.259Z,49.97
2022-12-01T05:26:57.423Z,51.92
2022-12-01T05:29:24.843Z,45.15
2022-12-01T05:31:51.680Z,50.35
2022-12-01T05:34:18.927Z,54.23
2022-12-01T05:36:45.709Z,50.75
2022-12-01T05:39:12.926Z,54.22
2022-12-01T05:41:40.090Z,52.63
2022-12-01T05:44:07.260Z,49.53
2022-12-01T05:46:34.505Z,44.73
2022-12-01T05:49:01.708Z,47.67
2022-12-01T05:51:28.862Z,52.83
2022-12-01T05:53:56.135Z,50.58
2022-12-01T05:56:23.440Z,51.75
2022-12-01T05:58:50.607Z,59.23
2022-12-01T06:01:17.829Z,48.13
2022-12-01T06:03:45.190Z,52.25
2022-12-01T06:06:12.434Z,50.45
2022-12-01T06:08:39.628Z,60.38
2022-12-01T06:11:06.910Z,58.10
2022-12-01T06:13:34.176Z,50.42
2022-12-01T06:16:04.767Z,53.42
2022-12-01T06:18:33.647Z,65.80
2022-12-01T06:21:00.965Z,49.22
2022-12-01T06:23:30.618Z,49.47
2022-12-01T06:25:58.272Z,57.10
2022-12-01T06:28:25.527Z,48.00
2022-12-01T06:30:55.491Z,57.80
2022-12-01T06:33:26.647Z,47.13
2022-12-01T06:36:04.808Z,48.50
2022-12-01T06:38:33.280Z,46.60
2022-12-01T06:41:00.850Z,58.55
2022-12-01T06:43:28.383Z,48.95
2022-12-01T06:46:01.325Z,52.15
2022-12-01T06:48:29.503Z,58.57
2022-12-01T06:51:00.528Z,65.57
2022-12-01T06:53:28.562Z,55.45
2022-12-01T06:56:04.323Z,76.30
2022-12-01T06:58:31.856Z,71.00
2022-12-01T07:00:59.800Z,52.10
2022-12-01T07:03:27.084Z,58.78
2022-12-01T07:05:59.337Z,63.65
2022-12-01T07:08:27.649Z,68.28
2022-12-01T07:11:05.453Z,47.58
2022-12-01T07:13:34.023Z,61.40
2022-12-01T07:16:04.506Z,78.22
2022-12-01T07:18:32.048Z,52.83
2022-12-01T07:21:03.979Z,62.40
2022-12-01T07:23:31.231Z,63.13
2022-12-01T07:26:02.766Z,57.80
2022-12-01T07:28:30.377Z,65.38
2022-12-01T07:31:12.090Z,106.20
2022-12-01T07:33:39.722Z,93.55
2022-12-01T07:36:07.464Z,193.00
2022-12-01T07:38:35.705Z,198.17
2022-12-01T07:41:13.683Z,258.33
2022-12-01T07:43:41.330Z,153.77
2022-12-01T07:46:20.376Z,180.07
2022-12-01T07:48:49.374Z,142.25
2022-12-01T07:51:16.818Z,254.47
2022-12-01T07:53:47.989Z,209.45
2022-12-01T07:56:15.419Z,88.05
2022-12-01T07:58:42.615Z,165.15
2022-12-01T08:01:14.998Z,118.07
2022-12-01T08:03:42.529Z,109.57
2022-12-01T08:06:10.214Z,111.05
2022-12-01T08:08:39.103Z,145.80
2022-12-01T08:11:09.910Z,123.70
2022-12-01T08:13:37.230Z,70.72
2022-12-01T08:16:06.036Z,183.27
2022-12-01T08:18:37.524Z,125.45
2022-12-01T08:21:05.398Z,89.53
2022-12-01T08:23:32.815Z,71.43
2022-12-01T08:26:04.143Z,91.93
2022-12-01T08:28:31.384Z,90.30
2022-12-01T08:30:58.814Z,111.40
2022-12-01T08:33:26.145Z,81.93
2022-12-01T08:35:53.555Z,78.68
2022-12-01T08:38:20.790Z,99.63
2022-12-01T08:40:48.027Z,73.97
2022-12-01T08:43:41.407Z,61.95
2022-12-01T08:46:02.436Z,64.30
2022-12-01T08:48:30.117Z,58.03
2022-12-01T08:51:11.995Z,68.50
2022-12-01T08:53:45.492Z,62.70
2022-12-01T08:56:31.392Z,72.22
2022-12-01T08:58:58.431Z,68.35
2022-12-01T09:01:26.417Z,68.10
2022-12-01T09:04:05.745Z,75.53
2022-12-01T09:06:37.419Z,70.97
2022-12-01T09:09:05.034Z,60.85
2022-12-01T09:11:32.348Z,62.15
2022-12-01T09:14:00.023Z,64.47
2022-12-01T09:16:27.250Z,65.53
2022-12-01T09:18:55.532Z,63.33
2022-12-01T09:21:33.433Z,65.53
2022-12-01T09:24:01.586Z,65.60
2022-12-01T09:26:29.022Z,64.35
2022-12-01T09:28:58.900Z,73.45
2022-12-01T09:31:26.082Z,62.80
2022-12-01T09:34:04.483Z,56.45
2022-12-01T09:36:33.588Z,65.47
2022-12-01T09:39:01.125Z,70.88
2022-12-01T09:41:39.820Z,68.68
2022-12-01T09:44:31.606Z,57.87
2022-12-01T09:47:24.089Z,63.67
2022-12-01T09:50:00.902Z,63.42
2022-12-01T09:52:32.574Z,55.72
2022-12-01T09:55:01.337Z,58.88
2022-12-01T09:57:35.210Z,53.97
2022-12-01T10:00:13.870Z,56.90
2022-12-01T10:03:08.637Z,56.92
2022-12-01T10:06:25.291Z,58.92
2022-12-01T10:08:44.078Z,55.63
2022-12-01T10:11:36.981Z,53.17
2022-12-01T10:14:06.105Z,54.33
2022-12-01T10:16:43.465Z,52.92
2022-12-01T10:19:32.915Z,53.25
2022-12-01T10:22:00.126Z,59.55
2022-12-01T10:24:52.463Z,53.53
2022-12-01T10:27:37.074Z,53.58
2022-12-01T10:30:15.497Z,55.72
2022-12-01T10:32:52.220Z,51.55
2022-12-01T10:35:29.227Z,48.30
2022-12-01T10:38:29.368Z,55.10
2022-12-01T10:40:59.873Z,56.05
2022-12-01T10:43:40.585Z,55.65
2022-12-01T10:46:47.931Z,58.20
2022-12-01T10:49:16.917Z,56.60
2022-12-01T10:51:54.058Z,51.63
2022-12-01T10:54:22.921Z,55.83
2022-12-01T10:56:55.177Z,63.35
2022-12-01T10:59:32.650Z,61.47
2022-12-01T11:02:00.437Z,59.85
2022-12-01T11:04:45.489Z,57.37
2022-12-01T11:07:22.648Z,62.72
2022-12-01T11:10:17.637Z,55.38
2022-12-01T11:12:52.460Z,57.03
2022-12-01T11:15:23.269Z,62.35
2022-12-01T11:17:59.448Z,63.33
2022-12-01T11:20:32.444Z,54.00
2022-12-01T11:23:24.259Z,64.57
2022-12-01T11:26:14.145Z,56.45
2022-12-01T11:28:51.053Z,56.80
2022-12-01T11:31:19.157Z,54.77
2022-12-01T11:33:52.850Z,58.03
2022-12-01T11:36:46.156Z,53.00
2022-12-01T11:39:24.854Z,53.60
2022-12-01T11:42:01.188Z,59.63
2022-12-01T11:44:50.326Z,55.10
2022-12-01T11:47:24.168Z,46.53
2022-12-01T11:50:00.362Z,47.28
2022-12-01T11:52:27.614Z,49.20
2022-12-01T11:54:56.697Z,49.95
2022-12-01T11:57:34.257Z,47.80
2022-12-01T12:00:05.834Z,44.78
2022-12-01T12:02:49.106Z,45.95
2022-12-01T12:05:49.909Z,44.88
2022-12-01T12:08:34.336Z,45.65
2022-12-01T12:11:21.144Z,39.67
2022-12-01T12:14:06.585Z,41.97
2022-12-01T12:17:03.123Z,43.60
2022-12-01T12:19:34.233Z,40.58
2022-12-01T12:22:15.256Z,44.05
2022-12-01T12:25:04.496Z,42.63
2022-12-01T12:28:05.884Z,46.20
2022-12-01T12:30:46.484Z,42.65
2022-12-01T12:33:19.220Z,45.17
2022-12-01T12:36:12.608Z,42.17
2022-12-01T12:39:13.621Z,39.72
2022-12-01T12:41:57.223Z,39.67
2022-12-01T12:45:06.299Z,39.72
2022-12-01T12:48:02.406Z,39.78
2022-12-01T12:50:54.182Z,42.83
2022-12-01T12:53:25.651Z,41.45
2022-12-01T12:55:58.844Z,38.85
2022-12-01T12:58:31.143Z,38.40
2022-12-01T13:01:20.549Z,40.40
2022-12-01T13:04:09.440Z,35.20
2022-12-01T13:06:41.275Z,38.10
2022-12-01T13:09:19.595Z,44.90
2022-12-01T13:11:56.713Z,44.53
2022-12-01T13:14:29.533Z,44.20
2022-12-01T13:17:02.590Z,41.83
2022-12-01T13:19:34.765Z,40.83
2022-12-01T13:22:02.906Z,39.65
2022-12-01T13:24:31.251Z,36.45
2022-12-01T13:27:03.767Z,41.17
2022-12-01T13:29:40.853Z,40.78
2022-12-01T13:32:33.548Z,43.20
2022-12-01T13:35:02.588Z,37.53
2022-12-01T13:37:32.514Z,35.97
2022-12-01T13:40:22.048Z,39.22
2022-12-01T13:43:10.412Z,36.53
2022-12-01T13:45:40.005Z,37.27
2022-12-01T13:48:26.383Z,40.10
2022-12-01T13:50:53.572Z,40.10
2022-12-01T13:53:22.863Z,39.92
2022-12-01T13:55:58.488Z,39.75
2022-12-01T13:58:33.335Z,39.27
2022-12-01T14:01:22.511Z,38.20
2022-12-01T14:04:11.590Z,40.38
2022-12-01T14:06:49.547Z,40.78
2022-12-01T14:09:53.981Z,38.28
2022-12-01T14:12:25.408Z,38.50
2022-12-01T14:15:01.860Z,42.65
2022-12-01T14:17:32.048Z,38.85
2022-12-01T14:20:21.654Z,39.63
2022-12-01T14:23:21.362Z,41.35
2022-12-01T14:26:21.260Z,39.63
2022-12-01T14:29:00.295Z,44.17
2022-12-01T14:31:33.135Z,44.67
2022-12-01T14:34:18.762Z,42.53
2022-12-01T14:36:58.664Z,40.60
2022-12-01T14:39:32.896Z,40.80
2022-12-01T14:42:44.088Z,42.13
2022-12-01T14:45:16.263Z,42.72
2022-12-01T14:47:50.815Z,40.95
2022-12-01T14:50:31.625Z,44.05
2022-12-01T14:53:16.308Z,44.20
2022-12-01T14:55:50.426Z,46.88
2022-12-01T14:58:32.203Z,48.10
2022-12-01T15:01:04.813Z,49.13
2022-12-01T15:03:45.366Z,43.42
2022-12-01T15:06:17.988Z,49.63
2022-12-01T15:09:04.187Z,43.50
2022-12-01T15:11:33.233Z,45.90
2022-12-01T15:14:00.571Z,49.00
2022-12-01T15:16:32.077Z,45.25
2022-12-01T15:18:59.582Z,50.57
2022-12-01T15:21:31.755Z,42.20
2022-12-01T15:24:19.681Z,46.10
2022-12-01T15:26:49.004Z,43.67
2022-12-01T15:29:17.145Z,52.40
2022-12-01T15:31:47.262Z,47.73
2022-12-01T15:34:18.834Z,39.97
2022-12-01T15:36:47.118Z,43.95
2022-12-01T15:39:20.714Z,47.45
2022-12-01T15:41:53.870Z,49.58
2022-12-01T15:44:26.977Z,44.63
2022-12-01T15:46:54.494Z,45.33
2022-12-01T15:49:30.054Z,44.05
2022-12-01T15:52:17.289Z,48.00
2022-12-01T15:54:48.578Z,47.33
2022-12-01T15:57:21.104Z,44.30
2022-12-01T15:59:53.962Z,46.08
2022-12-01T16:02:21.223Z,47.53
2022-12-01T16:04:49.317Z,48.50
2022-12-01T16:07:16.877Z,56.58
2022-12-01T16:09:56.419Z,52.83
2022-12-01T16:12:25.984Z,50.95
2022-12-01T16:15:11.997Z,48.45
2022-12-01T16:17:53.819Z,58.67
2022-12-01T16:20:31.189Z,49.83
2022-12-01T16:23:01.233Z,53.43
2022-12-01T16:25:30.197Z,53.45
2022-12-01T16:27:58.057Z,61.45
2022-12-01T16:30:30.173Z,60.95
2022-12-01T16:33:16.046Z,60.53
2022-12-01T16:35:43.646Z,61.87
2022-12-01T16:38:19.500Z,60.40
2022-12-01T16:40:48.104Z,45.22
2022-12-01T16:43:17.153Z,48.88
2022-12-01T16:45:45.394Z,46.20
2022-12-01T16:48:13.108Z,47.13
2022-12-01T16:50:40.504Z,52.42
2022-12-01T16:53:07.724Z,56.75
2022-12-01T16:55:34.978Z,48.20
2022-12-01T16:58:02.423Z,51.05
2022-12-01T17:00:30.208Z,56.13
2022-12-01T17:02:57.883Z,59.38
2022-12-01T17:05:25.172Z,59.25
2022-12-01T17:07:52.619Z,61.30
2022-12-01T17:10:20.521Z,57.47
2022-12-01T17:12:47.821Z,81.23
2022-12-01T17:15:15.107Z,60.58
2022-12-01T17:17:42.411Z,78.47
2022-12-01T17:20:10.354Z,72.97
2022-12-01T17:22:37.835Z,68.03
2022-12-01T17:25:05.655Z,59.43
2022-12-01T17:27:33.045Z,60.28
2022-12-01T17:30:02.354Z,66.32
2022-12-01T17:32:29.642Z,54.53
2022-12-01T17:34:56.860Z,64.90
2022-12-01T17:37:24.153Z,57.90
2022-12-01T17:39:51.411Z,62.63
2022-12-01T17:42:18.600Z,64.15
2022-12-01T17:44:46.032Z,52.58
2022-12-01T17:47:13.599Z,56.47
2022-12-01T17:49:40.427Z,61.40
2022-12-01T17:52:08.446Z,49.35
2022-12-01T17:54:35.376Z,59.67
2022-12-01T17:57:02.720Z,64.13
2022-12-01T17:59:29.563Z,57.47
2022-12-01T18:01:56.909Z,53.67
2022-12-01T18:04:24.242Z,54.30
2022-12-01T18:06:54.258Z,53.08
2022-12-01T18:09:22.087Z,49.30
2022-12-01T18:11:49.515Z,56.40
2022-12-01T18:14:17.854Z,49.43
2022-12-01T18:16:45.595Z,55.45
2022-12-01T18:19:13.058Z,54.47
2022-12-01T18:21:40.395Z,58.25
2022-12-01T18:24:09.204Z,55.38
2022-12-01T18:26:38.295Z,207.30
2022-12-01T18:29:08.332Z,183.98
2022-12-01T18:31:36.055Z,153.23
2022-12-01T18:34:03.738Z,104.18
2022-12-01T18:36:32.405Z,77.70
2022-12-01T18:39:00.483Z,52.07
2022-12-01T18:41:27.743Z,55.22
2022-12-01T18:43:55.138Z,57.75
2022-12-01T18:46:22.424Z,57.90
2022-12-01T18:48:52.080Z,55.03
2022-12-01T18:51:19.707Z,55.53
2022-12-01T18:53:47.813Z,58.80
2022-12-01T18:56:15.677Z,65.05
2022-12-01T18:58:43.134Z,60.42
2022-12-01T19:01:26.023Z,58.42
2022-12-01T19:03:55.817Z,62.50
2022-12-01T19:06:23.470Z,69.05
2022-12-01T19:08:50.848Z,78.18
2022-12-01T19:11:18.301Z,62.63
2022-12-01T19:13:46.042Z,67.13
2022-12-01T19:16:15.037Z,60.43
2022-12-01T19:18:42.330Z,56.97
2022-12-01T19:21:11.140Z,49.60
2022-12-01T19:23:38.391Z,58.05
2022-12-01T19:26:07.158Z,102.00
2022-12-01T19:28:35.412Z,109.90
2022-12-01T19:31:11.281Z,121.53
2022-12-01T19:33:38.895Z,92.50
2022-12-01T19:36:07.931Z,77.40
2022-12-01T19:38:35.288Z,59.83
2022-12-01T19:41:02.789Z,59.17
2022-12-01T19:43:29.660Z,52.88
2022-12-01T19:45:56.966Z,55.55
2022-12-01T19:48:24.283Z,50.28
2022-12-01T19:50:51.599Z,51.33
2022-12-01T19:53:18.844Z,56.30
2022-12-01T19:55:46.096Z,53.67
2022-12-01T19:58:13.359Z,50.17
2022-12-01T20:00:40.638Z,50.15
2022-12-01T20:03:07.995Z,47.10
2022-12-01T20:05:35.321Z,47.53
2022-12-01T20:08:02.826Z,46.30
2022-12-01T20:10:30.092Z,45.92
2022-12-01T20:12:57.412Z,54.13
2022-12-01T20:15:25.001Z,61.58
2022-12-01T20:17:53.724Z,58.90
2022-12-01T20:20:20.962Z,51.60
2022-12-01T20:22:48.267Z,57.92
2022-12-01T20:25:15.440Z,58.72
2022-12-01T20:27:42.707Z,54.75
2022-12-01T20:30:10.384Z,54.93
2022-12-01T20:32:37.971Z,56.03
2022-12-01T20:35:05.377Z,51.72
2022-12-01T20:37:32.596Z,53.97
2022-12-01T20:40:00.184Z,56.10
2022-12-01T20:42:27.446Z,53.97
2022-12-01T20:44:54.197Z,55.28
2022-12-01T20:47:21.493Z,51.38
2022-12-01T20:49:48.730Z,46.30
2022-12-01T20:52:16.043Z,46.65
2022-12-01T20:54:44.704Z,54.40
2022-12-01T20:57:11.968Z,55.30
2022-12-01T20:59:39.264Z,55.33
2022-12-01T21:02:06.341Z,52.00
2022-12-01T21:04:33.663Z,52.42
2022-12-01T21:07:01.959Z,54.80
2022-12-01T21:09:29.195Z,47.35
2022-12-01T21:12:17.179Z,55.38
2022-12-01T21:15:12.078Z,59.83
2022-12-01T21:18:04.077Z,62.70
2022-12-01T21:20:35.936Z,54.53
2022-12-01T21:23:15.195Z,47.50
2022-12-01T21:25:43.402Z,57.40
2022-12-01T21:28:25.121Z,61.70
2022-12-01T21:31:25.474Z,58.65
2022-12-01T21:33:52.826Z,58.40
2022-12-01T21:36:24.043Z,50.45
2022-12-01T21:38:55.805Z,61.90
2022-12-01T21:41:30.145Z,57.33
2022-12-01T21:44:07.540Z,62.88
2022-12-01T21:46:35.282Z,64.27
2022-12-01T21:49:02.707Z,56.95
2022-12-01T21:51:30.844Z,54.22
2022-12-01T21:53:58.052Z,62.50
2022-12-01T21:56:27.747Z,61.08
2022-12-01T21:59:02.571Z,65.67
2022-12-01T22:01:31.377Z,59.45
2022-12-01T22:04:05.630Z,54.67
2022-12-01T22:06:32.792Z,51.72
2022-12-01T22:09:18.160Z,54.10
2022-12-01T22:11:50.898Z,55.70
2022-12-01T22:14:27.753Z,52.30
2022-12-01T22:16:57.919Z,57.08
2022-12-01T22:19:29.887Z,52.35
2022-12-01T22:22:02.774Z,47.80
2022-12-01T22:24:53.583Z,44.37
2022-12-01T22:27:32.716Z,50.63
2022-12-01T22:30:05.697Z,45.97
2022-12-01T22:32:53.235Z,52.85
2022-12-01T22:35:24.525Z,54.00
2022-12-01T22:38:10.980Z,48.30
2022-12-01T22:40:53.695Z,49.42
2022-12-01T22:43:49.716Z,55.22
2022-12-01T22:46:35.386Z,50.67
2022-12-01T22:49:02.648Z,51.67
2022-12-01T22:51:40.308Z,64.13
2022-12-01T22:54:09.850Z,53.60
2022-12-01T22:56:41.793Z,61.50
2022-12-01T22:59:21.791Z,60.78
2022-12-01T23:01:55.902Z,56.65
2022-12-01T23:04:23.277Z,48.90
2022-12-01T23:06:57.942Z,54.47
2022-12-01T23:09:31.836Z,51.75
2022-12-01T23:12:09.883Z,59.65
2022-12-01T23:14:41.251Z,60.88
2022-12-01T23:17:16.483Z,58.80
2022-12-01T23:19:43.638Z,55.50
2022-12-01T23:22:11.787Z,58.92
2022-12-01T23:24:39.295Z,63.60
2022-12-01T23:27:06.795Z,64.88
2022-12-01T23:29:34.522Z,63.67
2022-12-01T23:32:01.709Z,60.78
2022-12-01T23:34:29.169Z,63.40
2022-12-01T23:36:57.231Z,70.57
2022-12-01T23:39:31.841Z,65.18
2022-12-01T23:41:59.352Z,65.60
2022-12-01T23:44:26.556Z,69.15
2022-12-01T23:46:56.554Z,72.80
2022-12-01T23:49:29.652Z,68.53
2022-12-01T23:51:59.892Z,61.33
2022-12-01T23:54:33.575Z,54.10
2022-12-01T23:57:11.784Z,71.63
2022-12-01T23:59:38.589Z,63.65
